Time;durP1;ratioP1;P1;durP2;ratioP2;P2;SDS_P1;SDS_P2;PMS_P1;PMS_P2;Temp;Humidity;BMP_temperature;BMP_pressure;BME280_temperature;BME280_humidity;BME280_pressure;Samples;Min_cycle;Max_cycle;Signal;HPM_P1;HPM_P2
2022/12/31 00:01:53;;;;;;;9.10;8.30;;;;;;;11.85;100.00;68084.34;4979442;28;20121;-82
2022/12/31 00:04:19;;;;;;;8.77;8.05;;;;;;;11.86;100.00;68086.09;4988768;28;20043;-82
2022/12/31 00:06:45;;;;;;;8.85;8.25;;;;;;;11.87;100.00;68086.66;4999677;28;20115;-84
2022/12/31 00:09:10;;;;;;;8.77;8.00;;;;;;;11.87;100.00;68084.53;4992854;28;20053;-82
2022/12/31 00:11:36;;;;;;;8.00;7.30;;;;;;;11.90;100.00;68087.94;4991547;28;20046;-82
2022/12/31 00:14:02;;;;;;;8.38;7.63;;;;;;;11.88;100.00;68085.69;4993798;28;20037;-83
2022/12/31 00:16:29;;;;;;;9.65;8.85;;;;;;;;;;4998630;28;20117;-83
2022/12/31 00:18:58;;;;;;;8.57;7.88;;;;;;;11.90;100.00;68090.06;4991631;28;20038;-82
2022/12/31 00:21:24;;;;;;;8.57;7.88;;;;;;;11.89;100.00;68086.81;4993030;28;20042;-82
2022/12/31 00:23:50;;;;;;;9.15;8.25;;;;;;;11.89;100.00;68088.94;4994792;28;20046;-83
2022/12/31 00:26:20;;;;;;;8.88;8.07;;;;;;;11.90;100.00;68087.94;4993954;28;20047;-83
2022/12/31 00:28:46;;;;;;;9.70;9.00;;;;;;;11.90;100.00;68087.94;4969468;28;20051;-82
2022/12/31 00:31:24;;;;;;;9.50;8.70;;;;;;;11.91;100.00;68089.09;4980843;28;20616;-83
2022/12/31 00:33:50;;;;;;;9.40;8.70;;;;;;;11.93;100.00;68088.69;4998113;28;20060;-83
2022/12/31 00:36:21;;;;;;;9.38;8.60;;;;;;;11.91;100.00;68091.19;5000675;28;20113;-82
2022/12/31 00:38:48;;;;;;;10.13;9.23;;;;;;;11.93;100.00;68094.03;4992934;28;20073;-82
2022/12/31 00:41:15;;;;;;;9.65;8.85;;;;;;;11.91;100.00;68085.84;4995899;28;20038;-83
2022/12/31 00:43:41;;;;;;;10.48;9.68;;;;;;;11.86;100.00;68083.41;5000544;28;20065;-83
2022/12/31 00:46:10;;;;;;;9.70;8.85;;;;;;;11.89;100.00;68083.59;4987993;28;20379;-82
2022/12/31 00:48:35;;;;;;;9.32;8.52;;;;;;;11.88;100.00;68088.38;4987622;28;20066;-82
2022/12/31 00:51:03;;;;;;;10.80;9.90;;;;;;;11.88;100.00;68085.69;4987975;28;20077;-82
2022/12/31 00:53:28;;;;;;;10.93;10.13;;;;;;;11.90;100.00;68085.28;4983721;28;20549;-83
2022/12/31 00:56:03;;;;;;;10.55;9.75;;;;;;;11.95;100.00;68095.75;4983363;28;20121;-83
2022/12/31 00:58:28;;;;;;;11.05;9.80;;;;;;;11.95;100.00;68093.63;4971295;28;20047;-83
2022/12/31 01:00:54;;;;;;;11.63;10.73;;;;;;;11.94;100.00;68095.19;4987840;28;20044;-83
2022/12/31 01:03:19;;;;;;;11.82;10.82;;;;;;;11.92;100.00;68087.56;4996133;28;20055;-83
2022/12/31 01:05:44;;;;;;;11.23;10.35;;;;;;;11.92;100.00;68087.56;5008414;28;20038;-82
2022/12/31 01:08:10;;;;;;;12.07;11.07;;;;;;;11.91;100.00;68088.53;5005525;28;20038;-82
2022/12/31 01:13:19;;;;;;;10.40;9.60;;;;;;;;;;4985973;28;20561;-82
2022/12/31 01:15:44;;;;;;;10.60;9.60;;;;;;;11.89;100.00;68088.94;4991835;28;20038;-83
2022/12/31 01:18:10;;;;;;;9.43;8.60;;;;;;;11.92;100.00;68092.91;4997692;28;20046;-82
2022/12/31 01:20:37;;;;;;;10.48;9.68;;;;;;;11.94;100.00;68091.94;4997946;28;20034;-83
2022/12/31 01:23:04;;;;;;;9.02;8.23;;;;;;;11.94;100.00;68095.19;5010950;28;20056;-82
2022/12/31 01:25:29;;;;;;;8.27;7.68;;;;;;;11.98;100.00;68098.59;4995787;28;20057;-83
2022/12/31 01:27:54;;;;;;;8.55;7.85;;;;;;;12.00;100.00;68098.16;5011653;28;20057;-82
2022/12/31 01:30:20;;;;;;;8.70;7.97;;;;;;;12.05;100.00;68098.53;4991675;28;20093;-82
2022/12/31 01:32:45;;;;;;;8.45;7.70;;;;;;;12.07;100.00;68108.81;4987738;28;20435;-82
2022/12/31 01:35:10;;;;;;;8.43;7.82;;;;;;;12.08;100.00;68107.25;4991803;28;20094;-82
2022/12/31 01:37:36;;;;;;;8.30;7.50;;;;;;;12.11;100.00;68110.66;4989598;28;20094;-82
2022/12/31 01:40:01;;;;;;;8.68;7.97;;;;;;;12.11;100.00;68113.34;4970319;28;20043;-83
2022/12/31 01:42:26;;;;;;;8.30;7.70;;;;;;;12.11;100.00;68110.66;4973039;28;20531;-82
2022/12/31 01:44:54;;;;;;;8.73;7.93;;;;;;;12.11;100.00;68105.91;4967744;28;20038;-82
2022/12/31 01:47:36;;;;;;;9.77;8.88;;;;;;;12.13;100.00;68115.63;4966830;28;20093;-83
2022/12/31 01:50:17;;;;;;;8.73;7.93;;;;;;;12.10;100.00;68109.53;4978418;28;20691;-82
2022/12/31 01:52:48;;;;;;;9.90;9.20;;;;;;;12.09;100.00;68108.41;4990342;28;20063;-83
2022/12/31 01:55:18;;;;;;;9.18;8.40;;;;;;;12.07;100.00;68106.13;4964523;28;20043;-83
2022/12/31 01:57:47;;;;;;;8.60;8.00;;;;;;;12.13;100.00;68110.28;4957111;28;20776;-82
2022/12/31 02:00:13;;;;;;;9.67;8.97;;;;;;;;;;4967609;28;20078;-82
2022/12/31 02:02:38;;;;;;;8.80;8.20;;;;;;;12.10;100.00;68112.22;4960913;28;20503;-82
2022/12/31 02:05:12;;;;;;;8.73;8.13;;;;;;;12.09;100.00;68111.66;4966977;28;20125;-82
2022/12/31 02:07:38;;;;;;;8.10;7.40;;;;;;;12.09;100.00;68106.31;4979696;28;20491;-83
2022/12/31 02:10:04;;;;;;;7.22;6.72;;;;;;;12.14;100.00;68114.06;4962769;28;20051;-83
2022/12/31 02:12:29;;;;;;;7.43;6.90;;;;;;;12.15;100.00;68115.78;4962717;28;20047;-83
2022/12/31 02:14:55;;;;;;;6.88;6.38;;;;;;;;;;4960859;28;20051;-83
2022/12/31 02:17:32;;;;;;;7.22;6.72;;;;;;;12.13;100.00;68115.63;4962034;28;20043;-82
2022/12/31 02:20:19;;;;;;;6.80;6.25;;;;;;;12.08;100.00;68110.50;4962654;28;20043;-82
2022/12/31 02:23:05;;;;;;;5.93;5.43;;;;;;;12.02;100.00;68108.44;4963853;28;20066;-83
2022/12/31 02:25:45;;;;;;;5.47;5.07;;;;;;;11.91;100.00;68091.78;4964268;28;20443;-83
2022/12/31 02:28:28;;;;;;;4.90;4.50;;;;;;;11.84;100.00;68081.13;4964722;28;20051;-83
2022/12/31 02:31:10;;;;;;;5.40;5.00;;;;;;;11.79;100.00;68077.53;4966020;28;20066;-83
2022/12/31 02:33:45;;;;;;;6.18;5.70;;;;;;;11.75;100.00;68070.91;4959022;28;20513;-82
2022/12/31 02:36:19;;;;;;;6.03;5.63;;;;;;;11.71;100.00;68069.03;4962923;28;20093;-82
2022/12/31 02:38:46;;;;;;;5.60;5.30;;;;;;;11.67;100.00;68064.47;4960757;28;20126;-82
2022/12/31 02:44:17;;;;;;;7.00;6.40;;;;;;;11.59;100.00;68050.63;4966754;28;20054;-82
2022/12/31 02:46:53;;;;;;;6.97;6.47;;;;;;;11.56;100.00;68049.31;4970858;28;20534;-82
2022/12/31 02:49:54;;;;;;;7.30;6.80;;;;;;;11.53;100.00;68044.38;4962377;28;20270;-82
2022/12/31 02:52:56;;;;;;;8.02;7.38;;;;;;;11.50;100.00;68046.31;4964690;28;20058;-83
2022/12/31 02:55:30;;;;;;;8.27;7.57;;;;;;;11.48;100.00;68041.38;4959654;28;20058;-83
2022/12/31 02:58:13;;;;;;;8.38;7.75;;;;;;;11.45;100.00;68040.63;4957288;28;20618;-82
2022/12/31 03:03:29;;;;;;;8.10;7.45;;;;;;;11.38;100.00;68026.78;4957240;28;20054;-83
2022/12/31 03:05:55;;;;;;;7.15;6.65;;;;;;;;;;4963390;28;20415;-83
2022/12/31 03:08:22;;;;;;;8.30;7.60;;;;;;;11.27;100.00;68020.19;4962845;28;20047;-83
2022/12/31 03:10:48;;;;;;;8.52;7.82;;;;;;;11.24;100.00;68014.69;4961715;28;20050;-83
2022/12/31 03:13:13;;;;;;;8.05;7.45;;;;;;;11.22;100.00;68014.50;4965226;28;20047;-83
2022/12/31 03:15:39;;;;;;;8.27;7.47;;;;;;;11.20;100.00;68009.59;4961155;28;20043;-82
2022/12/31 03:18:14;;;;;;;7.85;7.20;;;;;;;11.19;100.00;68011.09;4962748;28;20043;-82
2022/12/31 03:23:41;;;;;;;8.43;7.68;;;;;;;11.10;100.00;67998.22;4961866;28;20598;-82
2022/12/31 03:26:09;;;;;;;8.68;7.88;;;;;;;11.06;100.00;67992.16;4968288;28;20053;-83
2022/12/31 03:28:36;;;;;;;9.50;8.18;;;;;;;11.04;100.00;67992.53;4956033;28;20051;-83
2022/12/31 03:31:02;;;;;;;8.70;8.00;;;;;;;11.04;100.00;67992.53;4962585;28;20077;-82
2022/12/31 03:33:33;;;;;;;7.78;7.18;;;;;;;11.04;100.00;67994.66;4961877;28;20047;-83
2022/12/31 03:36:01;;;;;;;7.93;7.32;;;;;;;11.00;100.00;67988.00;4961091;28;20499;-82
2022/12/31 03:38:26;;;;;;;7.57;6.87;;;;;;;10.97;100.00;67987.28;4962351;28;20050;-84
2022/12/31 03:40:52;;;;;;;7.85;7.25;;;;;;;10.97;100.00;67986.72;4963820;28;20287;-83
2022/12/31 03:43:18;;;;;;;8.68;7.97;;;;;;;10.96;100.00;67983.47;4957349;28;20047;-83
2022/12/31 03:45:47;;;;;;;8.05;7.35;;;;;;;10.95;100.00;67985.00;4959873;28;20043;-82
2022/12/31 03:48:12;;;;;;;8.05;7.35;;;;;;;10.93;100.00;67979.50;4959938;28;20058;-83
2022/12/31 03:50:38;;;;;;;8.38;7.60;;;;;;;10.92;100.00;67981.59;4964046;28;20078;-82
2022/12/31 03:53:04;;;;;;;8.88;8.10;;;;;;;10.91;100.00;67977.81;4966406;28;20074;-83
2022/12/31 03:55:29;;;;;;;9.35;8.55;;;;;;;10.91;100.00;67980.47;4959899;28;20034;-83
2022/12/31 03:57:55;;;;;;;9.60;8.80;;;;;;;10.92;100.00;67981.59;4962640;28;20497;-82
2022/12/31 04:00:21;;;;;;;10.73;9.63;;;;;;;10.91;100.00;67980.47;4966354;28;20056;-82
2022/12/31 04:02:47;;;;;;;8.90;8.20;;;;;;;;;;4961157;28;20570;-83
2022/12/31 04:05:12;;;;;;;8.48;7.68;;;;;;;;;;4964756;28;20110;-83
2022/12/31 04:07:38;;;;;;;8.35;7.55;;;;;;;10.91;100.00;67979.91;4966929;28;20522;-83
2022/12/31 04:10:06;;;;;;;8.00;7.30;;;;;;;10.89;100.00;67972.88;4965587;28;20136;-84
2022/12/31 04:12:32;;;;;;;8.98;8.27;;;;;;;10.90;100.00;67978.75;4962094;28;20528;-82
2022/12/31 04:14:58;;;;;;;8.60;7.70;;;;;;;10.89;100.00;67974.97;4967670;28;20043;-83
2022/12/31 04:17:24;;;;;;;8.88;7.93;;;;;;;10.86;100.00;67972.13;4966516;28;20043;-84
2022/12/31 04:19:49;;;;;;;8.25;7.53;;;;;;;10.87;100.00;67972.69;4963994;28;20043;-83
2022/12/31 04:22:15;;;;;;;10.18;8.73;;;;;;;10.86;100.00;67974.78;4964774;28;20039;-83
2022/12/31 04:24:40;;;;;;;10.40;8.43;;;;;;;;;;4962020;28;20058;-83
2022/12/31 04:27:06;;;;;;;9.80;8.80;;;;;;;10.84;100.00;67972.50;4968909;28;20038;-83
2022/12/31 04:29:31;;;;;;;10.00;9.10;;;;;;;10.83;100.00;67971.38;4969973;28;20086;-83
2022/12/31 04:31:57;;;;;;;8.27;7.47;;;;;;;10.81;100.00;67969.66;4965715;28;20039;-82
2022/12/31 04:34:22;;;;;;;8.88;8.07;;;;;;;;;;4969174;28;20039;-82
2022/12/31 04:36:47;;;;;;;8.43;7.60;;;;;;;;;;4967800;28;20070;-82
2022/12/31 04:39:12;;;;;;;7.80;7.13;;;;;;;10.77;100.00;67969.91;4965516;28;20278;-82
2022/12/31 04:41:38;;;;;;;8.48;7.68;;;;;;;10.77;100.00;67964.56;4957361;28;20410;-82
2022/12/31 04:44:03;;;;;;;7.97;7.28;;;;;;;10.76;100.00;67960.75;4965379;28;20074;-82
2022/12/31 04:46:31;;;;;;;8.20;7.40;;;;;;;10.75;100.00;67957.53;4961303;28;20047;-82
2022/12/31 04:48:58;;;;;;;9.10;8.30;;;;;;;10.76;100.00;67963.44;4963245;28;20177;-83
2022/12/31 04:51:24;;;;;;;9.77;8.77;;;;;;;10.72;100.00;67954.13;4961573;28;20046;-82
2022/12/31 04:53:50;;;;;;;13.40;9.70;;;;;;;10.75;100.00;67962.28;4959228;28;20042;-82
2022/12/31 04:56:16;;;;;;;9.95;8.95;;;;;;;10.73;100.00;67960.59;4959947;28;20349;-83
2022/12/31 04:58:42;;;;;;;11.85;9.38;;;;;;;10.73;100.00;67957.34;4962218;28;20070;-83
2022/12/31 05:01:08;;;;;;;11.05;9.85;;;;;;;10.72;100.00;67959.47;4966233;28;20043;-83
2022/12/31 05:03:34;;;;;;;9.82;8.82;;;;;;;10.71;100.00;67955.66;4964302;28;20050;-82
2022/12/31 05:06:05;;;;;;;11.65;9.43;;;;;;;10.72;100.00;67958.91;4955425;28;20054;-83
2022/12/31 05:08:32;;;;;;;14.63;10.80;;;;;;;10.71;100.00;67958.34;4961807;28;20097;-82
2022/12/31 05:10:57;;;;;;;14.30;11.48;;;;;;;10.72;100.00;67956.22;4956277;28;20050;-82
2022/12/31 05:13:23;;;;;;;11.90;9.68;;;;;;;10.71;100.00;67952.44;4960311;28;20058;-83
2022/12/31 05:15:49;;;;;;;11.95;9.45;;;;;;;10.71;100.00;67957.78;4962224;28;20143;-83
2022/12/31 05:18:14;;;;;;;13.13;9.90;;;;;;;10.70;100.00;67951.28;4962027;28;20122;-82
2022/12/31 05:20:40;;;;;;;15.07;10.50;;;;;;;10.71;100.00;67955.09;4959112;28;20047;-83
2022/12/31 05:23:05;;;;;;;12.70;9.65;;;;;;;10.71;100.00;67957.78;4959539;28;20054;-82
2022/12/31 05:25:31;;;;;;;14.50;10.15;;;;;;;10.70;100.00;67953.97;4960947;28;20042;-83
2022/12/31 05:27:56;;;;;;;13.43;9.13;;;;;;;10.70;100.00;67956.63;4958814;28;20050;-83
2022/12/31 05:30:22;;;;;;;13.55;9.73;;;;;;;10.70;100.00;67956.63;4956188;28;20043;-82
2022/12/31 05:32:48;;;;;;;11.63;8.82;;;;;;;10.70;100.00;67953.97;4956979;28;20066;-83
2022/12/31 05:35:13;;;;;;;11.25;9.18;;;;;;;10.69;100.00;67952.81;4961866;28;20043;-83
2022/12/31 05:37:39;;;;;;;11.55;8.65;;;;;;;10.70;100.00;67961.94;4959077;28;20129;-82
2022/12/31 05:40:05;;;;;;;10.07;8.60;;;;;;;10.70;100.00;67957.19;4960660;28;20507;-83
2022/12/31 05:42:30;;;;;;;11.05;9.65;;;;;;;10.72;100.00;67956.22;4959193;28;20063;-82
2022/12/31 05:44:56;;;;;;;10.77;9.00;;;;;;;10.71;100.00;67955.66;4957901;28;20522;-82
2022/12/31 05:47:22;;;;;;;8.68;7.85;;;;;;;10.71;100.00;67958.34;4964085;28;20605;-83
2022/12/31 05:49:47;;;;;;;9.90;7.68;;;;;;;;;;4961775;28;20134;-83
2022/12/31 05:52:12;;;;;;;7.43;6.72;;;;;;;10.73;100.00;67960.03;4965881;28;20178;-83
2022/12/31 05:54:38;;;;;;;6.95;6.35;;;;;;;10.76;100.00;67963.44;4966756;28;20047;-82
2022/12/31 05:57:03;;;;;;;7.40;6.68;;;;;;;10.77;100.00;67959.25;4962816;28;20121;-82
2022/12/31 05:59:29;;;;;;;6.53;5.93;;;;;;;10.77;100.00;67964.56;4960733;28;20890;-82
2022/12/31 06:01:54;;;;;;;7.22;6.55;;;;;;;10.79;100.00;67964.75;4986293;28;20550;-83
2022/12/31 06:04:20;;;;;;;7.00;5.68;;;;;;;10.77;100.00;67961.91;4982207;28;20038;-82
2022/12/31 06:06:45;;;;;;;7.32;6.63;;;;;;;10.78;100.00;67963.03;4979278;28;20047;-82
2022/12/31 06:09:11;;;;;;;7.25;6.55;;;;;;;10.77;100.00;67962.47;4990143;28;20050;-82
2022/12/31 06:11:36;;;;;;;6.78;6.18;;;;;;;10.80;100.00;67967.97;4992616;28;20050;-83
2022/12/31 06:14:01;;;;;;;6.80;6.20;;;;;;;10.79;100.00;67967.41;4991569;28;20138;-83
2022/12/31 06:16:27;;;;;;;6.97;6.28;;;;;;;10.81;100.00;67969.66;4987544;28;20031;-83
2022/12/31 06:18:53;;;;;;;6.68;5.97;;;;;;;10.82;100.00;67970.81;4979594;28;20121;-82
2022/12/31 06:21:20;;;;;;;9.43;7.32;;;;;;;10.86;100.00;67974.22;4986729;28;20410;-82
2022/12/31 06:23:46;;;;;;;8.73;7.93;;;;;;;10.84;100.00;67972.50;4988608;28;20042;-83
2022/12/31 06:26:11;;;;;;;11.57;10.40;;;;;;;10.86;100.00;67971.56;4985614;28;20046;-83
2022/12/31 06:28:36;;;;;;;10.45;9.10;;;;;;;10.88;100.00;67973.84;4990561;28;20129;-82
2022/12/31 06:31:05;;;;;;;8.32;6.78;;;;;;;10.88;100.00;67976.50;4986211;28;21185;-82
2022/12/31 06:33:30;;;;;;;7.72;7.03;;;;;;;10.90;100.00;67976.66;4985681;28;20039;-82
2022/12/31 06:35:57;;;;;;;7.03;6.35;;;;;;;10.91;100.00;67980.47;4987273;28;20122;-82
2022/12/31 06:38:24;;;;;;;9.13;8.25;;;;;;;10.90;100.00;67979.31;4984949;28;20049;-82
2022/12/31 06:40:50;;;;;;;7.20;6.60;;;;;;;10.94;100.00;67983.31;4989119;28;20046;-82
2022/12/31 06:43:15;;;;;;;9.40;7.35;;;;;;;10.92;100.00;67978.94;4985718;28;20038;-82
2022/12/31 06:45:41;;;;;;;6.40;5.80;;;;;;;;;;4980455;28;21116;-82
2022/12/31 06:48:06;;;;;;;6.75;6.07;;;;;;;;;;4988103;28;20092;-82
2022/12/31 06:50:32;;;;;;;7.05;6.43;;;;;;;11.00;100.00;67987.44;4991391;28;20050;-83
2022/12/31 06:52:57;;;;;;;7.13;6.43;;;;;;;11.01;100.00;67989.13;4982590;28;20050;-83
2022/12/31 06:55:23;;;;;;;7.05;6.38;;;;;;;11.08;100.00;67996.53;4987110;28;20053;-82
2022/12/31 06:57:48;;;;;;;6.07;5.50;;;;;;;11.10;100.00;67998.22;4997523;28;20033;-83
2022/12/31 07:00:15;;;;;;;5.38;4.97;;;;;;;11.15;100.00;68006.56;4981053;28;20057;-82
2022/12/31 07:03:11;;;;;;;5.43;4.93;;;;;;;11.20;100.00;68009.59;4981698;28;20046;-82
2022/12/31 07:06:06;;;;;;;6.05;5.45;;;;;;;11.25;100.00;68015.25;4981224;28;20055;-83
2022/12/31 07:08:52;;;;;;;6.47;5.85;;;;;;;11.25;100.00;68015.84;4993871;28;20534;-82
2022/12/31 07:11:20;;;;;;;5.47;4.97;;;;;;;;;;4984512;28;20044;-83
2022/12/31 07:13:58;;;;;;;5.97;5.30;;;;;;;11.36;100.00;68025.06;4989728;28;20490;-83
2022/12/31 07:16:29;;;;;;;6.15;5.57;;;;;;;11.44;100.00;68033.59;4981485;28;20038;-82
2022/12/31 07:19:27;;;;;;;5.88;5.38;;;;;;;11.54;100.00;68050.28;4988476;28;20051;-82
2022/12/31 07:21:57;;;;;;;6.43;5.32;;;;;;;11.61;100.00;68055.56;4952075;28;20046;-82
2022/12/31 07:24:22;;;;;;;5.57;5.07;;;;;;;11.68;100.00;68065.59;4991326;28;20129;-83
2022/12/31 07:27:25;;;;;;;6.68;5.97;;;;;;;11.80;100.00;68076.03;4981579;28;20100;-82
2022/12/31 07:30:00;;;;;;;6.68;6.07;;;;;;;11.92;100.00;68089.66;5009748;28;20510;-83
2022/12/31 07:32:37;;;;;;;5.88;5.30;;;;;;;11.98;100.00;68095.91;4987010;28;20038;-83
2022/12/31 07:35:12;;;;;;;6.97;6.35;;;;;;;12.13;100.00;68115.63;4983601;28;20522;-81
2022/12/31 07:37:40;;;;;;;6.60;5.68;;;;;;;12.15;100.00;68117.91;4980667;28;20065;-82
2022/12/31 07:40:44;;;;;;;10.00;6.03;;;;;;;12.22;100.00;68119.94;4986972;28;20045;-82
2022/12/31 07:43:26;;;;;;;6.63;6.00;;;;;;;12.30;100.00;68134.94;4967362;28;20050;-83
2022/12/31 07:46:18;;;;;;;6.97;6.38;;;;;;;12.31;100.00;68130.72;5001908;28;20050;-83
2022/12/31 07:49:03;;;;;;;7.45;6.55;;;;;;;;;;4986105;28;20041;-83
2022/12/31 07:51:29;;;;;;;7.78;6.25;;;;;;;12.40;100.00;68146.31;4979699;28;20038;-83
2022/12/31 07:53:54;;;;;;;7.00;6.40;;;;;;;12.40;100.00;68143.06;4980707;28;20089;-82
2022/12/31 07:56:20;;;;;;;7.07;6.43;;;;;;;12.44;100.00;68149.72;4986401;28;20446;-83
2022/12/31 07:59:13;;;;;;;7.55;6.70;;;;;;;12.46;100.00;68147.22;4982687;28;20046;-83
2022/12/31 08:02:00;;;;;;;7.45;6.60;;;;;;;12.49;100.00;68152.72;4981943;28;20518;-82
2022/12/31 08:04:57;;;;;;;7.05;6.45;;;;;;;12.50;100.00;68151.19;4981968;28;20111;-83
2022/12/31 08:07:29;;;;;;;7.15;6.63;;;;;;;12.54;100.00;68161.06;4987682;28;20759;-83
2022/12/31 08:10:25;;;;;;;10.45;6.25;;;;;;;12.59;100.00;68164.09;4977557;28;20062;-83
2022/12/31 08:12:57;;;;;;;7.47;6.70;;;;;;;12.67;100.00;68170.50;4999809;28;20568;-82
2022/12/31 08:15:23;;;;;;;7.55;6.75;;;;;;;12.73;100.00;68182.66;4982355;28;20034;-83
2022/12/31 08:17:49;;;;;;;7.32;6.40;;;;;;;12.84;100.00;68194.59;4982047;28;20131;-82
2022/12/31 08:20:16;;;;;;;6.78;6.10;;;;;;;12.90;100.00;68200.88;4980933;28;20034;-83
2022/12/31 08:22:59;;;;;;;7.03;6.43;;;;;;;12.99;100.00;68211.09;4987313;28;20058;-82
2022/12/31 08:25:47;;;;;;;8.43;6.78;;;;;;;13.01;100.00;68211.25;4978112;28;20073;-82
2022/12/31 08:28:12;;;;;;;8.63;7.72;;;;;;;13.05;100.00;68217.91;4986613;28;20121;-82
2022/12/31 08:30:59;;;;;;;9.38;7.40;;;;;;;13.14;100.00;68228.13;4984645;28;20102;-82
2022/12/31 08:33:39;;;;;;;8.13;7.35;;;;;;;13.17;100.00;68231.00;4971000;28;20030;-82
2022/12/31 08:36:17;;;;;;;7.78;7.15;;;;;;;13.15;100.00;68223.94;4971390;28;20572;-82
2022/12/31 08:38:55;;;;;;;8.35;7.50;;;;;;;13.16;100.00;68230.41;4981174;28;20384;-82
2022/12/31 08:41:35;;;;;;;7.45;6.95;;;;;;;13.17;100.00;68231.00;4982910;28;20038;-83
2022/12/31 08:44:06;;;;;;;7.70;7.10;;;;;;;13.19;100.00;68228.50;4985417;28;20121;-83
2022/12/31 08:46:53;;;;;;;8.77;6.90;;;;;;;13.25;100.00;68234.75;4990978;28;20120;-83
2022/12/31 08:49:19;;;;;;;7.82;7.32;;;;;;;13.27;100.00;68239.72;4983540;28;20568;-82
2022/12/31 08:51:45;;;;;;;7.82;7.07;;;;;;;13.30;100.00;68243.13;4983487;28;20046;-82
2022/12/31 08:54:11;;;;;;;7.40;6.90;;;;;;;13.31;100.00;68247.50;4987825;28;20125;-81
2022/12/31 08:56:47;;;;;;;8.15;7.00;;;;;;;13.38;100.00;68254.91;4978998;28;20129;-83
2022/12/31 08:59:30;;;;;;;7.28;6.28;;;;;;;13.42;100.00;68256.78;4986534;28;20062;-81
2022/12/31 09:02:20;;;;;;;6.93;6.40;;;;;;;13.49;100.00;68262.06;5005575;28;20080;-81
2022/12/31 09:05:13;;;;;;;6.43;5.80;;;;;;;13.58;100.00;68271.72;4978504;28;20113;-83
2022/12/31 09:07:49;;;;;;;6.18;5.57;;;;;;;13.59;100.00;68278.22;4987741;28;20042;-81
2022/12/31 09:10:37;;;;;;;5.97;4.28;;;;;;;13.36;100.00;68246.72;4981214;28;20070;-81
2022/12/31 09:13:14;;;;;;;5.32;4.63;;;;;;;13.14;100.00;68224.91;5000758;28;20702;-80
2022/12/31 09:16:13;;;;;;;5.40;4.40;;;;;;;12.97;100.00;68208.81;4986378;28;20049;-81
2022/12/31 09:18:41;;;;;;;3.78;2.83;;;;;;;12.83;100.00;68193.47;4973805;28;20101;-82
2022/12/31 09:21:12;;;;;;;3.17;2.97;;;;;;;12.75;100.00;68184.94;4989860;28;20034;-81
2022/12/31 09:23:39;;;;;;;3.08;2.88;;;;;;;12.70;100.00;68179.25;4979123;28;20049;-82
2022/12/31 09:26:18;;;;;;;3.20;3.00;;;;;;;12.68;100.00;68171.63;4986447;28;20046;-82
2022/12/31 09:28:47;;;;;;;3.42;3.22;;;;;;;;;;4985010;28;20042;-81
2022/12/31 09:31:20;;;;;;;3.92;3.63;;;;;;;12.62;100.00;68167.50;4986520;28;20530;-81
2022/12/31 09:33:54;;;;;;;3.38;3.17;;;;;;;12.61;100.00;68163.69;5000842;28;20056;-81
2022/12/31 09:36:29;;;;;;;3.67;3.47;;;;;;;12.59;100.00;68167.31;4987408;28;20070;-82
2022/12/31 09:39:18;;;;;;;4.20;3.90;;;;;;;12.60;100.00;68165.81;5000401;28;20490;-82
2022/12/31 09:42:21;;;;;;;3.83;3.53;;;;;;;12.60;100.00;68173.22;4997836;28;20046;-81
2022/12/31 09:45:08;;;;;;;4.03;3.72;;;;;;;12.60;100.00;68163.13;4994560;28;20038;-82
2022/12/31 09:47:52;;;;;;;3.95;3.65;;;;;;;;;;4978980;28;20045;-82
2022/12/31 09:50:33;;;;;;;3.90;3.60;;;;;;;12.61;100.00;68166.38;4992963;28;20043;-83
2022/12/31 09:53:11;;;;;;;4.60;4.30;;;;;;;12.63;100.00;68168.66;4987203;28;20053;-82
2022/12/31 09:55:41;;;;;;;4.80;4.50;;;;;;;12.65;100.00;68168.22;4989773;28;20056;-82
2022/12/31 09:58:31;;;;;;;5.20;4.90;;;;;;;12.66;100.00;68174.72;4994033;28;20126;-82
2022/12/31 10:01:05;;;;;;;6.03;5.57;;;;;;;12.73;100.00;68177.31;4974170;28;20503;-82
2022/12/31 10:04:05;;;;;;;6.45;5.95;;;;;;;12.79;100.00;68188.91;4967697;28;20134;-82
2022/12/31 10:06:50;;;;;;;6.03;5.13;;;;;;;12.92;100.00;68203.13;4961885;28;20047;-82
2022/12/31 10:09:33;;;;;;;7.30;6.80;;;;;;;13.03;100.00;68215.63;4961787;28;20118;-82
2022/12/31 10:12:17;;;;;;;7.55;5.80;;;;;;;13.10;100.00;68223.59;4985829;28;20046;-82
2022/12/31 10:15:03;;;;;;;6.93;5.80;;;;;;;13.26;100.00;68236.47;4965894;28;20038;-82
2022/12/31 10:17:50;;;;;;;6.07;5.47;;;;;;;13.35;100.00;68248.22;4967247;28;20526;-82
2022/12/31 10:20:49;;;;;;;6.22;4.80;;;;;;;13.41;100.00;68258.31;4968561;28;20038;-83
2022/12/31 10:23:33;;;;;;;5.45;4.93;;;;;;;13.51;100.00;68263.75;4963303;28;20670;-82
2022/12/31 10:26:25;;;;;;;5.30;4.72;;;;;;;13.59;100.00;68278.22;4988482;28;20037;-81
2022/12/31 10:29:22;;;;;;;5.78;3.40;;;;;;;13.64;100.00;68280.66;4970926;28;20079;-83
2022/12/31 10:31:57;;;;;;;3.78;2.67;;;;;;;13.73;100.00;68293.56;4969600;28;20039;-82
2022/12/31 10:34:46;;;;;;;8.15;3.20;;;;;;;13.80;100.00;68295.63;4965408;28;20108;-82
2022/12/31 10:37:45;;;;;;;4.95;2.53;;;;;;;13.81;100.00;68302.09;4965729;28;20061;-82
2022/12/31 10:40:19;;;;;;;5.80;2.60;;;;;;;13.82;100.00;68303.81;4989989;28;20711;-82
2022/12/31 10:43:02;;;;;;;3.92;2.00;;;;;;;13.83;100.00;68304.94;4975243;28;20073;-82
2022/12/31 10:45:48;;;;;;;4.78;2.15;;;;;;;13.83;100.00;68299.03;4976974;28;20046;-82
2022/12/31 10:48:57;;;;;;;3.80;2.30;;;;;;;13.86;100.00;68299.75;4970847;28;20110;-82
2022/12/31 10:51:46;;;;;;;4.35;2.28;;;;;;;13.87;100.00;68303.59;4995422;28;20406;-81
2022/12/31 10:54:27;;;;;;;3.22;1.90;;;;;;;13.89;100.00;68309.09;4990146;28;20484;-82
2022/12/31 10:57:14;;;;;;;4.20;2.67;;;;;;;13.92;100.00;68315.19;5017937;28;20047;-82
2022/12/31 11:00:09;;;;;;;4.03;2.88;;;;;;;13.92;100.00;68311.94;4979850;28;20054;-83
2022/12/31 11:03:07;;;;;;;4.28;2.78;;;;;;;13.92;100.00;68312.50;4992532;28;20035;-82
2022/12/31 11:06:09;;;;;;;4.70;2.47;;;;;;;13.96;100.00;68316.50;5003926;28;20046;-82
2022/12/31 11:09:24;;;;;;;4.45;2.67;;;;;;;13.94;100.00;68314.22;4986634;28;20049;-82
2022/12/31 11:12:08;;;;;;;5.53;2.00;;;;;;;13.98;100.00;68318.75;4986511;28;20042;-83
2022/12/31 11:14:51;;;;;;;4.90;2.33;;;;;;;14.00;100.00;68321.03;4990051;28;20042;-83
2022/12/31 11:17:42;;;;;;;4.45;1.90;;;;;;;14.03;100.00;68321.78;5004427;28;20037;-82
2022/12/31 11:20:35;;;;;;;6.65;2.20;;;;;;;14.09;100.00;68325.94;4997653;28;20065;-82
2022/12/31 11:23:09;;;;;;;4.45;1.90;;;;;;;14.15;100.00;68340.78;4989143;28;20606;-82
2022/12/31 11:25:50;;;;;;;6.63;1.90;;;;;;;14.18;100.00;68341.53;4979072;28;20053;-81
2022/12/31 11:28:15;;;;;;;4.55;1.88;;;;;;;14.25;100.00;68348.34;4969918;28;20534;-82
2022/12/31 11:31:11;;;;;;;6.93;2.45;;;;;;;14.29;100.00;68355.59;4973386;28;20050;-82
2022/12/31 11:33:52;;;;;;;5.18;1.42;;;;;;;14.31;100.00;68355.75;4970509;28;20410;-82
2022/12/31 11:36:30;;;;;;;3.78;1.38;;;;;;;14.35;100.00;68357.06;4989695;28;20042;-82
2022/12/31 11:39:33;;;;;;;6.40;1.70;;;;;;;14.38;100.00;68361.03;4969595;28;20039;-82
2022/12/31 11:42:19;;;;;;;4.75;1.52;;;;;;;14.44;100.00;68367.88;4995641;28;20042;-83
2022/12/31 11:44:51;;;;;;;5.60;1.88;;;;;;;14.53;100.00;68380.25;4973844;28;20626;-82
2022/12/31 11:47:43;;;;;;;5.78;1.60;;;;;;;14.56;100.00;68383.09;4982810;28;20097;-82
2022/12/31 11:50:11;;;;;;;5.32;1.55;;;;;;;14.63;100.00;68391.63;4984157;28;20046;-82
2022/12/31 11:52:37;;;;;;;4.70;1.73;;;;;;;14.67;100.00;68395.59;4962161;28;20038;-83
2022/12/31 11:55:33;;;;;;;3.88;1.70;;;;;;;14.72;100.00;68401.31;4985122;28;20046;-82
2022/12/31 11:58:07;;;;;;;4.53;1.77;;;;;;;14.77;100.00;68409.13;4982487;28;20034;-82
2022/12/31 12:00:33;;;;;;;4.00;1.02;;;;;;;14.77;100.00;68403.75;4964882;28;20169;-82
2022/12/31 12:03:03;;;;;;;4.88;1.27;;;;;;;14.82;100.00;68409.44;4985666;28;20046;-81
2022/12/31 12:05:29;;;;;;;6.68;1.17;;;;;;;14.85;100.00;68418.22;4988655;28;20042;-82
2022/12/31 12:07:55;;;;;;;7.30;1.20;;;;;;;14.89;100.00;68422.78;4985270;28;20062;-81
2022/12/31 12:10:43;;;;;;;5.97;1.00;;;;;;;14.93;100.00;68427.31;4974128;28;20177;-82
2022/12/31 12:13:21;;;;;;;4.75;1.15;;;;;;;14.99;100.00;68434.16;4956548;28;20140;-81
2022/12/31 12:15:50;;;;;;;5.03;1.58;;;;;;;15.02;100.00;68434.91;4963847;28;20535;-81